Time;durP1;ratioP1;P1;durP2;ratioP2;P2;SDS_P1;SDS_P2;PMS_P1;PMS_P2;Temp;Humidity;BMP_temperature;BMP_pressure;BME280_temperature;BME280_humidity;BME280_pressure;Samples;Min_cycle;Max_cycle;Signal;HPM_P1;HPM_P2
2024/01/15 00:08:15;;;;;;;2.08;0.77;;;;;;;12.51;70.10;95507.81;6156112;23;20012;-25
2024/01/15 00:24:08;;;;;;;1.95;0.77;;;;;;;12.44;70.07;95491.84;6155602;23;20064;-25
2024/01/15 00:37:09;;;;;;;0.90;0.50;;;;;;;12.51;69.39;95464.31;6155791;23;20021;-25
2024/01/15 00:53:02;;;;;;;1.27;0.80;;;;;;;12.43;70.18;95435.97;6154176;23;20080;-25
2024/01/15 01:08:54;;;;;;;1.70;0.82;;;;;;;12.26;70.74;95423.19;6155579;23;20017;-25
2024/01/15 01:24:46;;;;;;;1.92;0.70;;;;;;;12.44;69.75;95407.56;6155416;23;20020;-25
2024/01/15 01:37:51;;;;;;;1.67;0.75;;;;;;;12.50;69.84;95394.06;6155293;23;20048;-25
2024/01/15 01:53:45;;;;;;;1.35;0.90;;;;;;;12.46;70.52;95375.22;6153756;23;20028;-25
2024/01/15 01:56:11;;;;;;;0.85;0.70;;;;;;;12.42;70.88;95363.75;6155611;23;20060;-25
2024/01/15 02:08:43;;;;;;;2.03;1.00;;;;;;;12.53;69.99;95342.22;6154916;23;20391;-25
2024/01/15 02:24:35;;;;;;;3.88;0.90;;;;;;;12.47;71.32;95325.06;6155135;23;20071;-25
2024/01/15 02:40:28;;;;;;;4.60;1.70;;;;;;;12.40;71.35;95290.06;6154924;23;20091;-25
2024/01/15 02:53:43;;;;;;;3.53;1.40;;;;;;;12.39;71.81;95285.06;6155042;23;20101;-25
2024/01/15 03:10:25;;;;;;;4.43;1.27;;;;;;;12.58;70.61;95262.72;6127356;23;20471;-25
2024/01/15 03:39:44;;;;;;;4.30;1.30;;;;;;;12.59;71.70;95215.25;6126985;23;20328;-25
2024/01/15 03:55:37;;;;;;;1.38;1.20;;;;;;;12.47;72.63;95193.78;6149201;23;20028;-25
2024/01/15 04:11:28;;;;;;;4.68;1.48;;;;;;;12.68;72.69;95184.50;6155995;23;20064;-25
2024/01/15 04:24:43;;;;;;;5.13;2.00;;;;;;;12.70;73.13;95164.97;6155884;23;20060;-25
2024/01/15 04:27:08;;;;;;;11.27;3.30;;;;;;;12.62;72.89;95159.16;6155378;23;20009;-25
2024/01/15 04:29:34;;;;;;;6.85;2.63;;;;;;;12.74;72.25;95160.84;6156027;23;20328;-25
2024/01/15 04:55:57;;;;;;;9.82;2.42;;;;;;;12.59;73.77;95169.03;6154220;23;20024;-25
2024/01/15 05:11:49;;;;;;;5.35;2.25;;;;;;;12.70;72.00;95168.44;6155034;23;20519;-25
2024/01/15 05:41:10;;;;;;;7.55;2.70;;;;;;;12.74;71.77;95143.75;6155275;23;20098;-25
2024/01/15 05:57:03;;;;;;;11.80;3.15;;;;;;;12.70;72.19;95129.63;6154007;23;20023;-25
2024/01/15 06:12:55;;;;;;;6.55;2.30;;;;;;;12.79;71.29;95134.94;6154960;23;20451;-25
2024/01/15 06:26:09;;;;;;;7.82;2.40;;;;;;;12.66;71.53;95121.66;6155253;23;20020;-25
2024/01/15 06:42:01;;;;;;;9.10;2.72;;;;;;;12.77;71.25;95137.38;6156880;23;20396;-25
2024/01/15 06:57:53;;;;;;;12.20;3.90;;;;;;;12.68;71.31;95148.38;6155430;23;20466;-25
2024/01/15 07:00:22;;;;;;;11.65;3.50;;;;;;;12.77;71.24;95145.53;6156904;23;20010;-25
2024/01/15 07:12:52;;;;;;;9.90;3.40;;;;;;;12.62;71.49;95148.28;6156508;23;20021;-25
2024/01/15 07:15:17;;;;;;;14.75;3.45;;;;;;;12.74;71.06;95141.03;6156427;23;20006;-25
2024/01/15 07:27:48;;;;;;;12.65;3.88;;;;;;;12.63;71.06;95162.63;6156403;23;20021;-25
2024/01/15 07:43:40;;;;;;;11.68;3.20;;;;;;;12.87;70.26;95157.81;6156244;23;20016;-25
2024/01/15 08:14:26;;;;;;;13.73;4.55;;;;;;;12.84;69.88;95161.50;6126586;23;20105;-25
2024/01/15 08:27:32;;;;;;;12.02;3.88;;;;;;;12.70;70.47;95159.53;6126382;23;20045;-25
2024/01/15 08:43:24;;;;;;;10.88;3.95;;;;;;;12.72;70.22;95163.28;6126040;23;20106;-25
2024/01/15 08:59:24;;;;;;;9.52;3.60;;;;;;;12.77;69.76;95178.19;6150722;23;20078;-25
2024/01/15 09:01:50;;;;;;;8.90;4.00;;;;;;;12.86;69.63;95178.09;6155418;23;20017;-25
2024/01/15 09:14:22;;;;;;;11.20;6.35;;;;;;;13.02;69.76;95195.91;6155637;23;20013;-25
2024/01/15 09:30:15;;;;;;;11.35;6.00;;;;;;;13.51;67.68;95186.97;6155069;23;20015;-25
2024/01/15 09:43:23;;;;;;;10.70;5.90;;;;;;;13.20;69.21;95180.13;6155518;23;20012;-25
2024/01/15 09:45:50;;;;;;;10.48;6.60;;;;;;;13.02;69.63;95180.31;6155129;23;20331;-25
2024/01/15 09:58:37;;;;;;;9.65;5.85;;;;;;;12.92;69.57;95176.97;6154223;23;20385;-25
2024/01/15 10:14:29;;;;;;;11.02;6.72;;;;;;;12.88;70.82;95181.84;6127805;23;20020;-25
2024/01/15 10:30:52;;;;;;;9.35;5.82;;;;;;;12.78;70.84;95152.50;6127806;23;20017;-25
2024/01/15 10:44:12;;;;;;;13.87;6.00;;;;;;;12.86;71.87;95150.88;6127708;23;20336;-25
2024/01/15 11:00:06;;;;;;;8.88;5.28;;;;;;;13.07;68.29;95138.09;6144057;23;20077;-25
2024/01/15 11:15:59;;;;;;;16.25;8.50;;;;;;;12.84;70.19;95110.56;6156261;23;20116;-25
2024/01/15 11:32:09;;;;;;;14.07;7.10;;;;;;;13.12;68.11;95066.63;6156287;23;20017;-25
2024/01/15 11:44:47;;;;;;;13.13;6.55;;;;;;;13.39;66.87;95065.50;6156249;23;20016;-25
2024/01/15 12:00:47;;;;;;;10.07;5.22;;;;;;;13.44;65.07;95064.84;6154568;23;20527;-25
2024/01/15 12:03:13;;;;;;;10.90;6.65;;;;;;;13.36;66.07;95063.72;6156290;23;20009;-25
2024/01/15 12:15:45;;;;;;;27.13;10.95;;;;;;;13.31;66.36;95065.19;6155733;23;20133;-25
2024/01/15 12:31:37;;;;;;;13.73;6.07;;;;;;;13.54;63.95;95036.22;6155808;23;20338;-25
2024/01/15 13:00:57;;;;;;;13.85;6.55;;;;;;;13.38;66.38;95020.44;6154532;23;20072;-25
2024/01/15 13:16:49;;;;;;;7.75;3.20;;;;;;;13.49;64.98;95006.94;6155277;23;20020;-25
2024/01/15 13:32:43;;;;;;;23.55;9.88;;;;;;;13.49;65.46;95004.22;6155225;23;20021;-25
2024/01/15 13:46:04;;;;;;;16.42;8.13;;;;;;;13.64;63.77;95004.88;6154987;23;20498;-25
2024/01/15 14:01:57;;;;;;;9.85;4.18;;;;;;;13.43;65.14;94979.66;6153723;23;20044;-25
2024/01/15 14:04:22;;;;;;;15.82;5.15;;;;;;;13.38;65.46;94979.59;6155522;23;20019;-25
2024/01/15 14:16:53;;;;;;;18.42;7.25;;;;;;;13.72;63.25;94988.88;6154873;23;20049;-25
2024/01/15 14:32:46;;;;;;;13.18;7.00;;;;;;;13.22;66.70;94986.38;6155210;23;20012;-25
2024/01/15 14:48:38;;;;;;;14.27;9.32;;;;;;;13.61;63.75;95011.28;6154779;23;20144;-25
2024/01/15 15:19:17;;;;;;;12.00;6.38;;;;;;;13.61;63.39;95014.75;6127137;23;20021;-25
2024/01/15 15:32:18;;;;;;;14.50;5.80;;;;;;;13.64;64.45;95013.06;6127226;23;20020;-25
2024/01/15 15:48:11;;;;;;;37.92;16.75;;;;;;;13.57;63.74;95033.31;6126707;23;20449;-25
2024/01/15 16:04:03;;;;;;;37.83;20.50;;;;;;;13.35;65.73;95052.13;6150686;23;20032;-25
2024/01/15 16:19:55;;;;;;;37.83;22.95;;;;;;;13.58;65.71;95053.88;6155795;23;20036;-25
2024/01/15 16:33:02;;;;;;;28.25;16.63;;;;;;;13.58;65.31;95064.75;6155890;23;20128;-25
2024/01/15 16:35:27;;;;;;;32.13;18.70;;;;;;;13.43;66.63;95066.06;6154293;23;20006;-25
2024/01/15 16:48:16;;;;;;;19.15;13.52;;;;;;;13.44;66.71;95083.91;6155837;23;20064;-25
2024/01/15 17:04:09;;;;;;;25.35;18.45;;;;;;;13.29;68.32;95073.06;6154270;23;20079;-24
2024/01/15 17:20:01;;;;;;;18.55;10.65;;;;;;;13.37;68.17;95078.84;6155075;23;20025;-25
2024/01/15 17:35:56;;;;;;;61.53;52.88;;;;;;;13.29;68.09;95082.00;6155296;23;20502;-25
2024/01/15 17:49:03;;;;;;;36.33;22.52;;;;;;;13.25;68.53;95091.56;6155317;23;20021;-25
2024/01/15 18:04:55;;;;;;;18.35;9.38;;;;;;;13.19;68.91;95102.41;6153614;23;20037;-25
2024/01/15 18:21:23;;;;;;;20.65;10.73;;;;;;;13.14;69.56;95127.56;6155469;23;20128;-25
2024/01/15 18:23:49;;;;;;;18.38;9.93;;;;;;;13.25;69.17;95127.72;6155401;23;20016;-25
2024/01/15 18:36:20;;;;;;;47.42;40.78;;;;;;;13.18;70.03;95139.03;6156876;23;20093;-25
2024/01/15 18:49:37;;;;;;;26.10;15.48;;;;;;;13.42;69.61;95162.59;6156994;23;20136;-25
2024/01/15 19:05:30;;;;;;;26.38;13.13;;;;;;;13.46;69.02;95168.59;6155432;23;20104;-25
2024/01/15 19:21:23;;;;;;;210.48;101.65;;;;;;;13.28;69.19;95183.94;6156512;23;20023;-25
2024/01/15 19:37:15;;;;;;;53.88;40.28;;;;;;;13.34;68.33;95194.19;6155757;23;20336;-25
2024/01/15 19:50:20;;;;;;;34.63;25.42;;;;;;;13.43;67.77;95202.97;6156511;23;20336;-25
2024/01/15 19:52:46;;;;;;;33.70;22.52;;;;;;;13.36;68.46;95208.06;6156010;23;20379;-25
2024/01/15 19:55:11;;;;;;;31.58;20.58;;;;;;;13.33;68.40;95209.03;6156521;23;20008;-25
2024/01/15 20:21:36;;;;;;;31.08;16.05;;;;;;;13.37;67.79;95226.66;6155886;23;20044;-25
2024/01/15 20:37:28;;;;;;;30.10;21.30;;;;;;;13.28;67.67;95246.56;6155826;23;20028;-25
2024/01/15 21:06:48;;;;;;;17.13;7.80;;;;;;;13.23;68.68;95260.84;6153986;23;20029;-25
2024/01/15 21:22:41;;;;;;;22.15;10.23;;;;;;;13.25;67.87;95258.41;6155494;23;20451;-25
2024/01/15 21:38:34;;;;;;;20.20;9.10;;;;;;;13.39;67.39;95269.75;6155023;23;20021;-25
2024/01/15 21:51:46;;;;;;;16.08;7.22;;;;;;;13.21;68.10;95278.91;6155468;23;20057;-25
2024/01/15 22:07:41;;;;;;;31.80;17.20;;;;;;;13.27;68.00;95291.34;6155626;23;20072;-25
2024/01/15 22:23:34;;;;;;;15.18;6.30;;;;;;;13.32;67.39;95291.94;6157138;23;20016;-25
2024/01/15 22:39:27;;;;;;;14.48;7.22;;;;;;;13.40;66.39;95301.22;6156705;23;20076;-25
2024/01/15 22:41:53;;;;;;;14.77;6.40;;;;;;;13.42;65.75;95304.22;6157126;23;20005;-25
2024/01/15 22:44:18;;;;;;;10.40;4.95;;;;;;;13.41;66.36;95327.22;6157098;23;20468;-25
2024/01/15 22:53:51;;;;;;;11.10;4.13;;;;;;;13.24;66.48;95329.66;6156741;23;20423;-25
2024/01/15 23:09:44;;;;;;;13.32;4.75;;;;;;;13.29;66.67;95329.00;6153652;23;20037;-25
2024/01/15 23:25:37;;;;;;;7.30;3.60;;;;;;;13.12;66.72;95336.09;6156709;23;20462;-25
2024/01/15 23:28:03;;;;;;;7.57;3.17;;;;;;;13.34;65.66;95336.53;6156423;23;20015;-25
2024/01/15 23:40:34;;;;;;;8.07;2.65;;;;;;;13.08;66.39;95335.56;6156476;23;20339;-25
2024/01/15 23:56:26;;;;;;;7.97;2.78;;;;;;;13.11;65.78;95351.69;6156028;23;20021;-25
